Time;durP1;ratioP1;P1;durP2;ratioP2;P2;SDS_P1;SDS_P2;PMS_P1;PMS_P2;Temp;Humidity;BMP_temperature;BMP_pressure;BME280_temperature;BME280_humidity;BME280_pressure;Samples;Min_cycle;Max_cycle;Signal;HPM_P1;HPM_P2
2022/08/20 00:00:28;;;;;;;3.63;3.40;;;25.20;66.50;;;;;;5050092;28;20187;-78
2022/08/20 00:02:57;;;;;;;3.67;3.40;;;25.10;67.00;;;;;;5046420;28;20207;-78
2022/08/20 00:05:27;;;;;;;3.83;3.72;;;25.10;67.50;;;;;;5048920;28;20627;-78
2022/08/20 00:07:53;;;;;;;5.13;3.40;;;25.10;67.40;;;;;;5044731;28;20937;-79
2022/08/20 00:10:21;;;;;;;3.67;3.50;;;25.10;68.70;;;;;;5045966;28;20305;-79
2022/08/20 00:12:48;;;;;;;3.63;3.42;;;25.20;68.20;;;;;;5049785;28;20206;-78
2022/08/20 00:15:15;;;;;;;3.35;3.05;;;25.20;67.50;;;;;;5049088;28;20179;-78
2022/08/20 00:17:41;;;;;;;3.70;3.40;;;25.20;68.60;;;;;;5049631;28;20185;-78
2022/08/20 00:20:10;;;;;;;3.63;3.53;;;25.20;67.30;;;;;;5052826;28;20182;-78
2022/08/20 00:22:36;;;;;;;3.58;3.47;;;25.20;66.80;;;;;;5056408;28;20800;-78
2022/08/20 00:25:10;;;;;;;3.45;3.25;;;25.20;67.30;;;;;;5052360;28;20182;-78
2022/08/20 00:27:35;;;;;;;4.10;3.80;;;25.20;68.30;;;;;;5051297;28;20194;-78
2022/08/20 00:30:04;;;;;;;3.80;3.60;;;25.20;67.70;;;;;;5055178;28;20214;-78
2022/08/20 00:32:30;;;;;;;3.88;3.58;;;25.20;67.30;;;;;;5051129;28;20313;-78
2022/08/20 00:34:56;;;;;;;3.40;3.30;;;25.20;67.70;;;;;;5052773;28;20189;-78
2022/08/20 00:37:22;;;;;;;3.63;3.33;;;25.20;68.10;;;;;;5053415;28;20187;-78
2022/08/20 00:39:47;;;;;;;3.97;3.17;;;25.10;67.10;;;;;;5053416;28;20211;-78
2022/08/20 00:42:13;;;;;;;3.53;3.42;;;25.10;67.30;;;;;;5049221;28;20224;-78
2022/08/20 00:44:46;;;;;;;4.15;3.92;;;25.10;68.30;;;;;;5056092;28;20182;-79
2022/08/20 00:47:12;;;;;;;3.75;3.50;;;25.10;67.00;;;;;;5051607;28;20578;-78
2022/08/20 00:49:38;;;;;;;3.70;3.40;;;25.10;67.40;;;;;;5050993;28;20211;-78
2022/08/20 00:52:12;;;;;;;3.75;3.40;;;25.10;68.10;;;;;;5051524;28;20180;-78
2022/08/20 00:54:52;;;;;;;3.55;3.25;;;25.10;67.80;;;;;;5048961;28;20324;-78
2022/08/20 00:57:28;;;;;;;3.08;2.97;;;25.10;67.10;;;;;;5052104;28;20661;-79
2022/08/20 00:59:56;;;;;;;3.35;3.15;;;25.00;67.50;;;;;;5053082;28;20203;-79
2022/08/20 01:02:26;;;;;;;4.00;3.72;;;25.00;68.20;;;;;;5053295;28;20184;-79
2022/08/20 01:04:53;;;;;;;3.03;2.92;;;25.00;68.80;;;;;;5049286;28;21022;-80
2022/08/20 01:07:31;;;;;;;3.75;3.45;;;25.00;68.40;;;;;;5049206;28;20713;-79
2022/08/20 01:10:08;;;;;;;3.35;3.25;;;25.00;67.80;;;;;;5049730;28;20314;-79
2022/08/20 01:12:36;;;;;;;3.63;3.42;;;24.90;68.50;;;;;;5045955;28;20187;-78
2022/08/20 01:15:04;;;;;;;3.47;3.38;;;24.90;68.60;;;;;;5048748;28;20729;-79
2022/08/20 01:17:33;;;;;;;3.80;3.53;;;24.90;69.10;;;;;;5048943;28;20752;-78
2022/08/20 01:20:10;;;;;;;3.78;3.45;;;24.80;69.10;;;;;;5051248;28;20194;-79
2022/08/20 01:26:02;;;;;;;3.08;2.95;;;24.80;69.60;;;;;;5054103;28;20202;-79
2022/08/20 01:28:39;;;;;;;6.00;4.30;;;24.70;69.60;;;;;;5048673;28;20196;-80
2022/08/20 01:31:08;;;;;;;3.92;3.72;;;24.60;69.50;;;;;;5044903;28;20739;-79
2022/08/20 01:33:34;;;;;;;4.25;4.03;;;24.60;69.00;;;;;;5052621;28;20194;-79
2022/08/20 01:36:00;;;;;;;3.90;3.65;;;24.50;69.60;;;;;;5047197;28;20190;-79
2022/08/20 01:38:28;;;;;;;3.53;3.35;;;24.50;69.30;;;;;;5051625;28;20629;-79
2022/08/20 01:41:24;;;;;;;3.88;3.70;;;24.50;69.00;;;;;;5053591;28;20202;-79
2022/08/20 01:43:55;;;;;;;3.00;2.92;;;24.50;69.40;;;;;;5045708;28;20188;-79
2022/08/20 01:46:31;;;;;;;4.50;3.38;;;24.50;69.90;;;;;;5047200;28;20254;-79
2022/08/20 01:48:59;;;;;;;3.75;3.55;;;24.50;70.30;;;;;;5049174;28;20824;-79
2022/08/20 01:51:29;;;;;;;3.25;3.15;;;24.50;69.30;;;;;;5054207;28;20206;-79
2022/08/20 01:53:58;;;;;;;3.75;3.60;;;24.50;70.10;;;;;;5049257;28;20707;-78
2022/08/20 01:56:29;;;;;;;4.10;3.80;;;24.40;70.80;;;;;;5052947;28;20179;-79
2022/08/20 01:58:57;;;;;;;3.97;3.83;;;24.40;70.20;;;;;;5050115;28;20179;-79
2022/08/20 02:01:31;;;;;;;3.90;3.53;;;24.40;70.50;;;;;;5053539;28;20661;-79
2022/08/20 02:03:59;;;;;;;3.55;3.25;;;24.40;69.60;;;;;;5048911;28;20199;-79
2022/08/20 02:06:26;;;;;;;3.67;3.50;;;24.30;71.00;;;;;;5050309;28;20710;-79
2022/08/20 02:08:56;;;;;;;4.63;4.32;;;24.30;70.40;;;;;;5050898;28;20290;-79
2022/08/20 02:11:23;;;;;;;3.80;3.70;;;24.30;70.60;;;;;;5047500;28;20548;-79
2022/08/20 02:13:51;;;;;;;3.40;3.30;;;24.30;70.20;;;;;;5046239;28;20291;-79
2022/08/20 02:16:24;;;;;;;3.72;3.40;;;24.30;69.90;;;;;;5045967;28;20681;-79
2022/08/20 02:18:56;;;;;;;7.68;4.10;;;24.30;69.60;;;;;;5049189;28;20672;-79
2022/08/20 02:21:24;;;;;;;6.55;3.40;;;24.30;70.10;;;;;;5046805;28;20603;-79
2022/08/20 02:23:50;;;;;;;3.58;3.38;;;24.30;70.20;;;;;;5047842;28;20211;-79
2022/08/20 02:26:17;;;;;;;4.93;3.40;;;24.30;70.10;;;;;;5047752;28;20178;-79
2022/08/20 02:28:49;;;;;;;3.33;3.22;;;24.30;70.10;;;;;;5047088;28;20744;-79
2022/08/20 02:31:17;;;;;;;4.65;3.38;;;24.20;71.30;;;;;;5048532;28;20203;-79
2022/08/20 02:33:43;;;;;;;3.42;3.33;;;24.20;72.40;;;;;;5050814;28;20182;-79
2022/08/20 02:36:11;;;;;;;3.83;3.55;;;24.10;70.40;;;;;;5051661;28;20275;-79
2022/08/20 02:38:37;;;;;;;3.65;3.45;;;24.10;71.80;;;;;;5052086;28;20183;-78
2022/08/20 02:41:04;;;;;;;4.40;3.78;;;24.10;71.80;;;;;;5052346;28;20222;-78
2022/08/20 02:43:31;;;;;;;4.53;4.13;;;24.10;71.60;;;;;;5046663;28;20216;-78
2022/08/20 02:45:58;;;;;;;4.05;3.83;;;24.10;71.90;;;;;;5049823;28;20271;-78
2022/08/20 02:48:24;;;;;;;4.30;3.90;;;24.10;72.10;;;;;;5046730;28;20191;-79
2022/08/20 02:50:56;;;;;;;4.03;3.83;;;24.10;71.80;;;;;;5047542;28;20218;-79
2022/08/20 02:53:24;;;;;;;3.92;3.72;;;24.10;70.60;;;;;;5045184;28;20184;-79
2022/08/20 02:55:50;;;;;;;4.28;4.07;;;24.10;70.90;;;;;;5043126;28;20214;-79
2022/08/20 02:58:16;;;;;;;4.30;4.05;;;24.10;71.20;;;;;;5049148;28;20186;-79
2022/08/20 03:00:43;;;;;;;4.22;3.90;;;24.10;70.40;;;;;;5051419;28;20179;-78
2022/08/20 03:03:10;;;;;;;3.95;3.65;;;24.10;70.60;;;;;;5049931;28;20608;-78
2022/08/20 03:05:37;;;;;;;5.03;4.38;;;24.10;70.10;;;;;;5047612;28;20266;-78
2022/08/20 03:08:05;;;;;;;3.88;3.72;;;24.10;71.10;;;;;;5053140;28;20181;-78
2022/08/20 03:10:34;;;;;;;5.07;4.20;;;24.10;70.20;;;;;;5047957;28;20653;-79
2022/08/20 03:13:01;;;;;;;5.07;4.68;;;24.00;70.00;;;;;;5049104;28;20963;-79
2022/08/20 03:15:28;;;;;;;4.38;4.18;;;24.00;70.10;;;;;;5053515;28;20241;-79
2022/08/20 03:17:54;;;;;;;4.72;4.45;;;24.00;69.50;;;;;;5048968;28;20176;-78
2022/08/20 03:20:21;;;;;;;5.20;4.32;;;24.00;71.40;;;;;;5044741;28;20232;-79
2022/08/20 03:22:48;;;;;;;4.03;3.83;;;24.00;70.40;;;;;;5045755;28;20254;-79
2022/08/20 03:25:14;;;;;;;4.18;3.88;;;23.90;70.50;;;;;;5047526;28;20273;-79
2022/08/20 03:27:41;;;;;;;3.92;3.72;;;23.90;70.70;;;;;;5050586;28;20191;-78
2022/08/20 03:30:09;;;;;;;4.93;4.25;;;23.90;70.70;;;;;;5046629;28;20660;-79
2022/08/20 03:32:36;;;;;;;5.95;4.35;;;23.80;70.60;;;;;;5048384;28;20190;-79
2022/08/20 03:35:04;;;;;;;4.93;4.63;;;23.80;71.00;;;;;;5049774;28;20571;-79
2022/08/20 03:37:32;;;;;;;4.95;4.55;;;23.70;70.90;;;;;;5050166;28;20572;-78
2022/08/20 03:39:58;;;;;;;4.68;4.35;;;23.70;71.20;;;;;;5052506;28;20815;-79
2022/08/20 03:42:24;;;;;;;4.93;4.43;;;23.70;71.00;;;;;;5050234;28;20187;-79
2022/08/20 03:44:50;;;;;;;4.88;4.60;;;23.60;71.60;;;;;;5048125;28;20186;-78
2022/08/20 03:47:16;;;;;;;4.47;4.18;;;23.60;71.90;;;;;;5044261;28;20188;-79
2022/08/20 03:49:42;;;;;;;4.93;4.07;;;23.50;72.00;;;;;;5050452;28;20223;-79
2022/08/20 03:52:08;;;;;;;3.95;3.85;;;23.50;71.90;;;;;;5048811;28;20179;-79
2022/08/20 03:54:34;;;;;;;4.55;4.25;;;23.50;71.80;;;;;;5045612;28;20176;-78
2022/08/20 03:57:01;;;;;;;4.30;3.90;;;23.50;71.70;;;;;;5048398;28;20179;-79
2022/08/20 03:59:31;;;;;;;4.28;4.07;;;23.40;72.40;;;;;;5045505;28;20573;-79
2022/08/20 04:01:58;;;;;;;4.15;3.95;;;23.40;72.00;;;;;;5048936;28;20179;-79
2022/08/20 04:04:24;;;;;;;4.22;3.88;;;23.30;72.00;;;;;;5049646;28;20190;-79
2022/08/20 04:06:50;;;;;;;4.47;4.28;;;23.30;72.20;;;;;;5047592;28;20221;-78
2022/08/20 04:09:16;;;;;;;6.60;4.55;;;23.30;72.10;;;;;;5049403;28;20367;-78
2022/08/20 04:11:42;;;;;;;4.93;4.53;;;23.30;72.40;;;;;;5041788;28;20191;-79
2022/08/20 04:14:09;;;;;;;4.55;4.18;;;23.20;72.30;;;;;;5048712;28;20220;-79
2022/08/20 04:16:36;;;;;;;4.95;4.65;;;23.20;72.10;;;;;;5049111;28;20191;-79
2022/08/20 04:19:03;;;;;;;4.63;4.40;;;23.20;71.90;;;;;;5050706;28;20210;-79
2022/08/20 04:21:30;;;;;;;4.82;4.55;;;23.20;73.10;;;;;;5048248;28;20267;-77
2022/08/20 04:23:57;;;;;;;8.93;5.00;;;23.20;72.30;;;;;;5048114;28;20195;-78
2022/08/20 04:26:23;;;;;;;6.45;5.50;;;23.20;72.30;;;;;;5047980;28;20184;-78
2022/08/20 04:28:51;;;;;;;5.18;4.88;;;23.20;72.40;;;;;;5048669;28;20218;-77
2022/08/20 04:31:17;;;;;;;5.45;4.45;;;23.20;72.70;;;;;;5046002;28;20274;-78
2022/08/20 04:33:43;;;;;;;5.40;5.00;;;23.30;72.80;;;;;;5053180;28;20732;-78
2022/08/20 04:36:09;;;;;;;5.13;4.72;;;23.20;72.70;;;;;;5049324;28;20256;-78
2022/08/20 04:38:35;;;;;;;4.90;4.70;;;23.20;72.30;;;;;;5041859;28;20242;-78
2022/08/20 04:41:01;;;;;;;4.53;4.30;;;23.20;72.00;;;;;;5044459;28;20213;-79
2022/08/20 04:43:32;;;;;;;4.68;4.50;;;23.30;72.00;;;;;;5045201;28;20188;-76
2022/08/20 04:46:00;;;;;;;4.85;4.53;;;23.30;71.20;;;;;;5051115;28;20217;-77
2022/08/20 04:48:27;;;;;;;4.32;4.13;;;23.30;72.10;;;;;;5049061;28;20241;-76
2022/08/20 04:50:55;;;;;;;5.55;4.70;;;23.40;73.00;;;;;;5051926;28;20217;-76
2022/08/20 04:53:24;;;;;;;5.38;4.97;;;23.50;73.80;;;;;;5041967;28;20184;-78
2022/08/20 04:55:51;;;;;;;5.55;5.05;;;23.50;73.00;;;;;;5049573;28;20186;-78
2022/08/20 04:58:24;;;;;;;5.25;4.72;;;23.40;73.30;;;;;;5048504;28;20179;-78
2022/08/20 05:00:54;;;;;;;4.65;4.40;;;23.40;71.90;;;;;;5051796;28;20191;-77
2022/08/20 05:03:21;;;;;;;5.72;4.82;;;23.40;71.70;;;;;;5047400;28;20664;-78
2022/08/20 05:05:47;;;;;;;4.95;4.57;;;23.40;71.70;;;;;;5050940;28;20214;-78
2022/08/20 05:08:14;;;;;;;4.53;4.22;;;23.50;71.90;;;;;;5056135;28;20186;-78
2022/08/20 05:10:40;;;;;;;4.10;4.00;;;23.50;71.70;;;;;;5054366;28;20601;-78
2022/08/20 05:13:07;;;;;;;3.78;3.67;;;23.60;71.40;;;;;;5054497;28;20629;-77
2022/08/20 05:15:33;;;;;;;4.65;4.20;;;23.70;71.50;;;;;;5055395;28;20217;-78
2022/08/20 05:18:06;;;;;;;5.05;4.68;;;23.70;71.40;;;;;;5052463;28;20187;-77
2022/08/20 05:20:38;;;;;;;4.53;4.32;;;23.80;72.00;;;;;;5049061;28;20184;-78
2022/08/20 05:23:07;;;;;;;4.28;4.07;;;23.90;72.00;;;;;;5051757;28;20750;-78
2022/08/20 05:25:33;;;;;;;4.35;4.00;;;24.00;71.80;;;;;;5054617;28;20263;-76
2022/08/20 05:28:01;;;;;;;5.25;4.95;;;24.10;72.40;;;;;;5050029;28;20207;-76
2022/08/20 05:30:32;;;;;;;5.05;4.10;;;24.20;72.10;;;;;;5047918;28;20783;-75
2022/08/20 05:33:03;;;;;;;4.90;4.60;;;24.20;72.20;;;;;;5049826;28;20187;-74
2022/08/20 05:35:29;;;;;;;3.95;3.80;;;24.30;71.10;;;;;;5053078;28;20194;-75
2022/08/20 05:37:56;;;;;;;5.00;4.70;;;24.30;71.70;;;;;;5053781;28;20176;-75
2022/08/20 05:40:23;;;;;;;4.70;4.50;;;24.40;71.70;;;;;;5051320;28;20178;-75
2022/08/20 05:42:50;;;;;;;4.70;4.50;;;24.40;71.90;;;;;;5048772;28;20180;-75
2022/08/20 05:45:16;;;;;;;5.13;4.72;;;24.50;71.20;;;;;;5046905;28;20179;-74
2022/08/20 05:47:43;;;;;;;5.40;4.90;;;24.50;72.10;;;;;;5052476;28;20176;-75
2022/08/20 05:50:10;;;;;;;4.97;4.68;;;24.70;72.20;;;;;;5047836;28;20208;-74
2022/08/20 05:52:36;;;;;;;5.03;4.60;;;24.70;71.90;;;;;;5053154;28;20219;-75
2022/08/20 05:55:04;;;;;;;5.07;4.78;;;24.80;72.00;;;;;;5045247;28;21034;-74
2022/08/20 05:57:30;;;;;;;5.70;5.22;;;24.90;72.00;;;;;;5049397;28;20182;-75
2022/08/20 05:59:55;;;;;;;4.45;4.32;;;24.90;71.50;;;;;;5048027;28;20194;-74
2022/08/20 06:05:05;;;;;;;4.85;4.55;;;25.00;71.70;;;;;;5049062;28;20257;-75
2022/08/20 06:07:31;;;;;;;6.03;5.47;;;25.10;71.50;;;;;;5050251;28;20851;-75
2022/08/20 06:09:57;;;;;;;4.82;4.53;;;25.20;71.30;;;;;;5050891;28;20753;-75
2022/08/20 06:12:22;;;;;;;4.95;4.63;;;25.30;71.40;;;;;;5048821;28;20176;-74
2022/08/20 06:14:48;;;;;;;4.80;4.57;;;25.30;71.20;;;;;;5046836;28;20183;-75
2022/08/20 06:17:17;;;;;;;5.47;5.07;;;25.40;71.30;;;;;;5053719;28;20182;-75
2022/08/20 06:19:44;;;;;;;5.55;4.97;;;25.50;70.90;;;;;;5047151;28;20196;-75
2022/08/20 06:22:12;;;;;;;5.30;4.90;;;25.60;70.70;;;;;;5050002;28;20180;-75
2022/08/20 06:24:37;;;;;;;4.95;4.57;;;25.70;70.90;;;;;;5054961;28;20184;-75
2022/08/20 06:27:05;;;;;;;5.57;5.07;;;25.70;70.70;;;;;;5051005;28;20716;-75
2022/08/20 06:29:34;;;;;;;5.25;4.90;;;25.70;70.80;;;;;;5050243;28;20928;-75
2022/08/20 06:32:00;;;;;;;4.78;4.47;;;25.80;70.40;;;;;;5050199;28;20678;-76
2022/08/20 06:34:27;;;;;;;5.30;4.90;;;25.80;70.40;;;;;;5047662;28;20672;-75
2022/08/20 06:36:56;;;;;;;4.50;4.40;;;25.80;70.40;;;;;;5050518;28;20202;-76
2022/08/20 06:39:22;;;;;;;5.18;4.97;;;25.90;69.90;;;;;;5048985;28;20192;-76
2022/08/20 06:41:48;;;;;;;4.50;4.30;;;26.00;70.40;;;;;;5049627;28;20191;-76
2022/08/20 06:44:14;;;;;;;6.72;5.00;;;26.10;70.60;;;;;;5046701;28;20290;-76
2022/08/20 06:46:42;;;;;;;5.38;4.97;;;26.20;71.10;;;;;;5047174;28;20671;-75
2022/08/20 06:49:08;;;;;;;5.05;4.80;;;26.30;71.00;;;;;;5050249;28;20202;-76
2022/08/20 06:51:36;;;;;;;4.95;4.60;;;26.30;70.50;;;;;;5047721;28;20188;-76
2022/08/20 06:54:03;;;;;;;4.72;4.32;;;26.30;70.60;;;;;;5042975;28;20180;-76
2022/08/20 06:56:29;;;;;;;5.68;5.22;;;26.40;70.40;;;;;;5044782;28;20194;-75
2022/08/20 06:58:55;;;;;;;4.95;4.75;;;26.40;70.80;;;;;;5046876;28;20209;-74
2022/08/20 07:01:21;;;;;;;5.13;4.75;;;26.50;70.30;;;;;;5046013;28;20190;-76
2022/08/20 07:03:48;;;;;;;5.20;4.90;;;26.60;70.20;;;;;;5049204;28;20295;-77
2022/08/20 07:06:15;;;;;;;5.15;4.70;;;26.70;70.00;;;;;;5049310;28;20194;-77
2022/08/20 07:08:41;;;;;;;4.85;4.45;;;26.80;70.20;;;;;;5043570;28;20180;-77
2022/08/20 07:11:07;;;;;;;5.20;4.88;;;26.90;70.10;;;;;;5051314;28;20663;-77
2022/08/20 07:13:35;;;;;;;5.13;4.82;;;27.00;70.50;;;;;;5049916;28;20746;-77
2022/08/20 07:16:01;;;;;;;4.95;4.70;;;27.10;70.00;;;;;;5051379;28;20186;-77
2022/08/20 07:18:27;;;;;;;5.05;4.78;;;27.20;70.80;;;;;;5045920;28;20184;-79
2022/08/20 07:20:55;;;;;;;6.55;4.82;;;27.30;69.70;;;;;;5051595;28;20272;-78
2022/08/20 07:23:22;;;;;;;5.13;4.93;;;27.40;69.70;;;;;;5053474;28;20625;-77
2022/08/20 07:25:48;;;;;;;5.55;4.78;;;27.50;69.80;;;;;;5049227;28;20184;-77
2022/08/20 07:28:20;;;;;;;5.47;5.18;;;27.50;68.90;;;;;;5045945;28;20648;-77
2022/08/20 07:33:33;;;;;;;5.45;5.07;;;27.70;70.10;;;;;;5049573;28;20573;-78
2022/08/20 07:36:02;;;;;;;5.03;4.82;;;27.80;69.10;;;;;;5043432;28;20285;-78
2022/08/20 07:38:29;;;;;;;5.72;5.28;;;27.90;69.10;;;;;;5046713;28;20184;-78
2022/08/20 07:41:02;;;;;;;5.53;5.22;;;28.00;69.00;;;;;;5045547;28;20229;-78
2022/08/20 07:43:29;;;;;;;5.20;4.80;;;28.10;69.00;;;;;;5051142;28;20187;-79
2022/08/20 07:45:59;;;;;;;5.55;5.05;;;28.10;68.30;;;;;;5048838;28;20194;-78
2022/08/20 07:48:27;;;;;;;5.57;5.10;;;28.20;68.00;;;;;;5063190;28;20188;-78
2022/08/20 07:50:57;;;;;;;5.45;5.15;;;28.30;68.30;;;;;;5044533;28;20211;-78
2022/08/20 07:53:24;;;;;;;5.60;5.18;;;28.30;67.90;;;;;;5044835;28;20194;-77
2022/08/20 07:55:50;;;;;;;6.07;5.20;;;28.40;68.20;;;;;;5061481;28;20247;-78
2022/08/20 07:58:19;;;;;;;5.20;4.90;;;28.50;68.60;;;;;;5059235;28;20217;-78
2022/08/20 08:00:45;;;;;;;5.18;4.88;;;28.60;68.00;;;;;;5059027;28;20176;-78
2022/08/20 08:03:12;;;;;;;6.68;6.05;;;28.70;68.10;;;;;;5058160;28;20190;-80
2022/08/20 08:05:40;;;;;;;6.30;5.80;;;28.80;68.00;;;;;;5055184;28;20276;-78
2022/08/20 08:08:10;;;;;;;5.82;5.45;;;28.90;67.50;;;;;;5062284;28;20258;-78
2022/08/20 08:10:36;;;;;;;4.82;4.63;;;29.00;67.20;;;;;;5054015;28;20775;-80
2022/08/20 08:13:07;;;;;;;6.18;5.57;;;29.20;67.50;;;;;;5056497;28;20176;-79
2022/08/20 08:15:39;;;;;;;5.90;5.45;;;29.30;66.60;;;;;;5060508;28;20195;-79
2022/08/20 08:18:10;;;;;;;5.50;5.00;;;29.40;66.50;;;;;;5059716;28;20179;-80
2022/08/20 08:20:40;;;;;;;5.82;5.47;;;29.50;65.50;;;;;;5052923;28;20270;-80
2022/08/20 08:23:07;;;;;;;6.28;5.63;;;29.60;65.90;;;;;;5055285;28;20234;-79
2022/08/20 08:25:33;;;;;;;5.72;5.32;;;29.70;65.50;;;;;;5054078;28;20232;-79
2022/08/20 08:27:59;;;;;;;5.88;5.40;;;29.80;65.70;;;;;;5044593;28;20187;-78
2022/08/20 08:30:27;;;;;;;5.03;4.82;;;30.00;65.80;;;;;;5053690;28;20219;-75
2022/08/20 08:35:38;;;;;;;5.78;5.47;;;30.10;65.40;;;;;;5052993;28;20202;-79
2022/08/20 08:38:10;;;;;;;5.85;5.35;;;30.30;65.40;;;;;;5047812;28;20812;-79
2022/08/20 08:40:36;;;;;;;5.85;5.30;;;30.40;64.70;;;;;;5055027;28;20195;-77
2022/08/20 08:43:03;;;;;;;6.13;5.45;;;30.50;63.90;;;;;;5049098;28;21025;-76
2022/08/20 08:45:44;;;;;;;5.75;5.35;;;30.50;64.20;;;;;;5047337;28;20568;-76
2022/08/20 08:48:17;;;;;;;5.20;4.90;;;30.50;64.10;;;;;;5050783;28;20184;-77
2022/08/20 08:50:46;;;;;;;5.47;5.20;;;30.60;64.70;;;;;;5046557;28;20222;-76
2022/08/20 08:53:24;;;;;;;5.78;5.38;;;30.70;65.00;;;;;;5047150;28;20546;-76
2022/08/20 08:55:50;;;;;;;6.13;5.55;;;30.80;64.70;;;;;;5051297;28;20175;-76
2022/08/20 08:58:15;;;;;;;5.95;5.57;;;31.00;64.20;;;;;;5043710;28;20171;-77
2022/08/20 09:00:41;;;;;;;5.70;5.38;;;31.10;64.60;;;;;;5049317;28;20601;-77
2022/08/20 09:03:28;;;;;;;5.93;5.47;;;31.30;63.70;;;;;;5052078;28;20187;-77
2022/08/20 09:05:57;;;;;;;5.93;5.60;;;31.40;64.10;;;;;;5045988;28;20757;-76
2022/08/20 09:08:30;;;;;;;6.13;5.72;;;31.60;63.90;;;;;;5047587;28;20182;-77
2022/08/20 09:11:02;;;;;;;5.32;5.03;;;31.70;62.30;;;;;;5049672;28;20231;-76
2022/08/20 09:13:28;;;;;;;5.40;5.20;;;31.80;62.30;;;;;;5047394;28;20192;-77
2022/08/20 09:15:53;;;;;;;6.03;5.57;;;31.90;61.80;;;;;;5049852;28;21144;-81
2022/08/20 09:18:19;;;;;;;5.93;5.55;;;32.00;61.90;;;;;;5052591;28;20638;-78
2022/08/20 09:20:45;;;;;;;5.85;5.47;;;32.20;62.10;;;;;;5050934;28;20179;-78
2022/08/20 09:23:10;;;;;;;5.68;5.13;;;32.30;61.60;;;;;;5056707;28;20189;-78
2022/08/20 09:25:36;;;;;;;5.53;5.20;;;32.50;61.00;;;;;;5053127;28;20199;-77
2022/08/20 09:28:02;;;;;;;6.68;6.18;;;32.80;60.90;;;;;;5050361;28;20214;-75
2022/08/20 09:30:28;;;;;;;5.55;5.25;;;33.10;60.60;;;;;;5052466;28;20302;-76
2022/08/20 09:32:53;;;;;;;5.70;5.40;;;33.50;58.80;;;;;;5050454;28;20307;-76
2022/08/20 09:35:19;;;;;;;5.10;4.90;;;34.00;58.40;;;;;;5052177;28;20222;-77
2022/08/20 09:37:45;;;;;;;5.63;5.32;;;34.50;57.40;;;;;;5046155;28;20179;-76
2022/08/20 09:40:11;;;;;;;5.85;5.55;;;35.00;57.20;;;;;;5048381;28;20193;-77
2022/08/20 09:42:38;;;;;;;6.00;5.70;;;35.40;57.20;;;;;;5043990;28;20695;-74
2022/08/20 09:45:04;;;;;;;5.03;4.78;;;35.80;54.70;;;;;;5043913;28;20266;-75
2022/08/20 09:47:30;;;;;;;5.55;5.35;;;36.30;55.30;;;;;;5045682;28;20411;-74
2022/08/20 09:49:55;;;;;;;6.28;5.45;;;36.90;52.70;;;;;;5054117;28;20222;-75
2022/08/20 09:52:33;;;;;;;5.68;5.28;;;37.30;53.30;;;;;;5044519;28;20190;-76
2022/08/20 09:55:03;;;;;;;6.60;5.22;;;37.70;53.80;;;;;;5051302;28;20201;-74
